Time,TemperatureF,DewpointF,PressureIn,WindDirection,WindDirectionDegrees,WindSpeedMPH,WindSpeedGustMPH,Humidity,HourlyPrecipIn,Conditions,Clouds,dailyrainin,SoftwareType,DateUTC
2013-03-20 00:00:00,54.7,15.5,29.68,North,0,3.0,6.0,21,0.00,RA,,0.00,WeatherDisplay:10.37,2013-03-20 04:00:00,
2013-03-20 00:01:00,54.7,15.5,29.67,North,0,3.8,5.8,21,0.00,RA,,0.00,WeatherDisplay:10.37,2013-03-20 04:01:00,
2013-03-20 00:06:00,54.7,15.5,29.67,North,0,3.8,5.8,21,0.00,RA,,0.00,WeatherDisplay:10.37,2013-03-20 04:06:00,
2013-03-20 00:11:00,54.7,15.5,29.67,North,0,3.8,5.8,21,0.00,CLR,,0.00,WeatherDisplay:10.37,2013-03-20 04:11:00,
2013-03-20 00:16:00,54.7,15.5,29.67,North,0,3.8,5.8,21,0.00,CLR,,0.00,WeatherDisplay:10.37,2013-03-20 04:16:00,
2013-03-20 00:21:00,54.7,15.5,29.67,North,0,3.8,5.8,21,0.00,CLR,,0.00,WeatherDisplay:10.37,2013-03-20 04:21:00,
2013-03-20 00:26:00,54.7,15.5,29.67,North,0,3.8,6.0,21,0.00,CLR,,0.00,WeatherDisplay:10.37,2013-03-20 04:26:00,
2013-03-20 00:31:00,54.7,15.5,29.67,North,0,3.8,5.8,21,0.00,CLR,,0.00,WeatherDisplay:10.37,2013-03-20 04:31:00,
2013-03-20 00:37:00,54.7,15.5,29.67,North,0,3.8,5.8,21,0.00,CLR,,0.00,WeatherDisplay:10.37,2013-03-20 04:37:00,
2013-03-20 00:42:00,52.2,14.4,29.67,North,0,1.6,3.8,22,0.00,CLR,,0.00,WeatherDisplay:10.37,2013-03-20 04:42:00,
2013-03-20 00:47:00,51.6,15.0,29.67,ENE,68,2.2,5.8,23,0.00,CLR,,0.00,WeatherDisplay:10.37,2013-03-20 04:47:00,
2013-03-20 00:52:00,51.3,14.7,29.67,NE,45,2.2,5.8,23,0.00,CLR,,0.00,WeatherDisplay:10.37,2013-03-20 04:52:00,
2013-03-20 00:57:00,51.3,14.7,29.67,NE,45,2.2,4.6,23,0.00,CLR,,0.00,WeatherDisplay:10.37,2013-03-20 04:57:00,
2013-03-20 01:02:00,51.3,14.7,29.67,East,90,4.5,9.2,23,0.00,CLR,,0.00,WeatherDisplay:10.37,2013-03-20 05:02:00,
2013-03-20 01:07:00,51.3,14.7,29.67,East,90,4.5,9.2,23,0.00,CLR,,0.00,WeatherDisplay:10.37,2013-03-20 05:07:00,
2013-03-20 01:12:00,51.3,14.7,29.68,North,0,4.5,9.2,23,0.00,CLR,,0.00,WeatherDisplay:10.37,2013-03-20 05:12:00,
2013-03-20 01:17:00,51.3,14.7,29.68,North,0,4.5,9.2,23,0.00,CLR,,0.00,WeatherDisplay:10.37,2013-03-20 05:17:00,
2013-03-20 01:22:00,51.3,14.7,29.68,North,0,4.5,9.2,23,0.00,CLR,,0.00,WeatherDisplay:10.37,2013-03-20 05:22:00,
2013-03-20 01:27:00,51.3,14.7,29.68,North,0,4.5,9.2,23,0.00,CLR,,0.00,WeatherDisplay:10.37,2013-03-20 05:27:00,
2013-03-20 01:32:00,50.4,13.9,29.68,NE,45,4.5,8.1,23,0.00,CLR,,0.00,WeatherDisplay:10.37,2013-03-20 05:32:00,
2013-03-20 01:38:00,50.4,13.9,29.68,NE,45,4.5,8.1,23,0.00,CLR,,0.00,WeatherDisplay:10.37,2013-03-20 05:38:00,
2013-03-20 01:43:00,50.4,13.9,29.68,North,0,4.5,8.1,23,0.00,CLR,,0.00,WeatherDisplay:10.37,2013-03-20 05:43:00,
2013-03-20 01:48:00,50.4,13.9,29.68,North,0,4.5,8.1,23,0.00,CLR,,0.00,WeatherDisplay:10.37,2013-03-20 05:48:00,
2013-03-20 01:53:00,50.0,13.6,29.69,NE,45,5.4,6.9,23,0.00,CLR,,0.00,WeatherDisplay:10.37,2013-03-20 05:53:00,
2013-03-20 01:58:00,49.8,14.4,29.69,NE,45,3.1,5.8,24,0.00,CLR,,0.00,WeatherDisplay:10.37,2013-03-20 05:58:00,
2013-03-20 02:03:00,49.8,14.4,29.69,NE,45,3.1,5.8,24,0.00,CLR,,0.00,WeatherDisplay:10.37,2013-03-20 06:03:00,
2013-03-20 02:08:00,49.8,14.4,29.69,NE,45,3.1,5.8,24,0.00,CLR,,0.00,WeatherDisplay:10.37,2013-03-20 06:08:00,
2013-03-20 02:13:00,49.8,14.4,29.69,NE,45,3.1,5.8,24,0.00,CLR,,0.00,WeatherDisplay:10.37,2013-03-20 06:13:00,
2013-03-20 02:18:00,49.1,13.8,29.69,North,0,2.2,5.8,24,0.00,CLR,,0.00,WeatherDisplay:10.37,2013-03-20 06:18:00,
2013-03-20 02:23:00,49.1,13.8,29.69,North,0,2.2,5.8,24,0.00,CLR,,0.00,WeatherDisplay:10.37,2013-03-20 06:23:00,
2013-03-20 02:28:00,49.1,13.8,29.69,North,0,2.2,5.8,24,0.00,CLR,,0.00,WeatherDisplay:10.37,2013-03-20 06:28:00,
2013-03-20 02:33:00,49.1,13.8,29.69,North,0,2.2,5.8,24,0.00,CLR,,0.00,WeatherDisplay:10.37,2013-03-20 06:33:00,
2013-03-20 02:38:00,48.6,12.4,29.69,NE,45,1.6,4.6,23,0.00,CLR,,0.00,WeatherDisplay:10.37,2013-03-20 06:38:00,
2013-03-20 02:43:00,48.4,13.2,29.69,NE,45,2.2,3.5,24,0.00,CLR,,0.00,WeatherDisplay:10.37,2013-03-20 06:43:00,
2013-03-20 02:48:00,47.8,13.7,29.69,North,0,0.0,0.0,25,0.00,CLR,,0.00,WeatherDisplay:10.37,2013-03-20 06:48:00,
2013-03-20 02:53:00,47.5,13.4,29.69,NE,45,0.0,1.6,25,0.00,CLR,,0.00,WeatherDisplay:10.37,2013-03-20 06:53:00,
2013-03-20 02:58:00,47.3,13.2,29.69,East,90,3.1,5.8,25,0.00,CLR,,0.00,WeatherDisplay:10.37,2013-03-20 06:58:00,
2013-03-20 03:03:00,47.1,13.0,29.69,NE,45,0.0,3.5,25,0.00,CLR,,0.00,WeatherDisplay:10.37,2013-03-20 07:03:00,
2013-03-20 03:08:00,46.9,12.9,29.69,NE,45,0.0,0.0,25,0.00,CLR,,0.00,WeatherDisplay:10.37,2013-03-20 07:08:00,
2013-03-20 03:13:00,46.6,12.6,29.69,North,0,0.0,0.0,25,0.00,CLR,,0.00,WeatherDisplay:10.37,2013-03-20 07:13:00,
2013-03-20 03:18:00,46.4,12.4,29.69,North,0,0.0,0.0,25,0.00,CLR,,0.00,WeatherDisplay:10.37,2013-03-20 07:18:00,
2013-03-20 03:23:00,46.0,8.2,29.69,North,0,0.0,0.0,21,0.00,CLR,,0.00,WeatherDisplay:10.37,2013-03-20 07:23:00,
2013-03-20 03:28:00,45.9,8.1,29.69,NE,45,0.0,0.0,21,0.00,CLR,,0.00,WeatherDisplay:10.37,2013-03-20 07:28:00,
2013-03-20 03:33:00,45.7,7.9,29.68,East,90,0.0,0.0,21,0.00,CLR,,0.00,WeatherDisplay:10.37,2013-03-20 07:33:00,
2013-03-20 03:38:00,45.7,7.9,29.68,North,0,0.0,0.0,21,0.00,CLR,,0.00,WeatherDisplay:10.37,2013-03-20 07:38:00,
2013-03-20 03:43:00,45.5,7.8,29.68,East,90,0.0,0.0,21,0.00,CLR,,0.00,WeatherDisplay:10.37,2013-03-20 07:43:00,
2013-03-20 03:48:00,45.1,7.5,29.68,North,0,0.0,0.0,21,0.00,CLR,,0.00,WeatherDisplay:10.37,2013-03-20 07:48:00,
2013-03-20 03:53:00,44.8,7.2,29.68,NE,45,0.0,0.0,21,0.00,CLR,,0.00,WeatherDisplay:10.37,2013-03-20 07:53:00,
2013-03-20 03:58:00,44.4,7.9,29.68,North,0,0.0,0.0,22,0.00,CLR,,0.00,WeatherDisplay:10.37,2013-03-20 07:58:00,
2013-03-20 04:03:00,44.2,8.7,29.68,NE,45,0.0,0.0,23,0.00,CLR,,0.00,WeatherDisplay:10.37,2013-03-20 08:03:00,
2013-03-20 04:08:00,44.1,8.6,29.68,East,90,0.0,0.0,23,0.00,CLR,,0.00,WeatherDisplay:10.37,2013-03-20 08:08:00,
2013-03-20 04:13:00,43.9,8.4,29.68,NE,45,0.0,0.0,23,0.00,CLR,,0.00,WeatherDisplay:10.37,2013-03-20 08:13:00,
2013-03-20 04:18:00,43.7,8.3,29.68,NE,45,0.0,0.0,23,0.00,CLR,,0.00,WeatherDisplay:10.37,2013-03-20 08:18:00,
2013-03-20 04:23:00,43.5,8.1,29.68,NE,45,0.0,0.0,23,0.00,CLR,,0.00,WeatherDisplay:10.37,2013-03-20 08:23:00,
2013-03-20 04:28:00,43.2,7.8,29.68,NE,45,0.0,0.0,23,0.00,CLR,,0.00,WeatherDisplay:10.37,2013-03-20 08:28:00,
2013-03-20 04:33:00,42.6,8.3,29.69,NE,45,0.0,0.0,24,0.00,CLR,,0.00,WeatherDisplay:10.37,2013-03-20 08:33:00,
2013-03-20 04:38:00,42.4,9.0,29.68,NE,45,0.0,0.0,25,0.00,CLR,,0.00,WeatherDisplay:10.37,2013-03-20 08:38:00,
2013-03-20 04:43:00,42.3,8.9,29.68,NE,45,0.0,0.0,25,0.00,CLR,,0.00,WeatherDisplay:10.37,2013-03-20 08:43:00,
2013-03-20 04:48:00,42.4,9.0,29.68,NE,45,0.0,0.0,25,0.00,CLR,,0.00,WeatherDisplay:10.37,2013-03-20 08:48:00,
2013-03-20 04:53:00,42.6,9.2,29.68,NE,45,0.0,0.0,25,0.00,CLR,,0.00,WeatherDisplay:10.37,2013-03-20 08:53:00,
2013-03-20 04:58:00,42.8,8.4,29.67,NE,45,0.0,0.0,24,0.00,CLR,,0.00,WeatherDisplay:10.37,2013-03-20 08:58:00,
2013-03-20 05:03:00,43.0,7.6,29.68,NE,45,0.0,0.0,23,0.00,CLR,,0.00,WeatherDisplay:10.37,2013-03-20 09:03:00,
2013-03-20 05:08:00,43.0,7.6,29.69,North,0,0.0,0.0,23,0.00,CLR,,0.00,WeatherDisplay:10.37,2013-03-20 09:08:00,
2013-03-20 05:13:00,43.0,7.6,29.69,NE,45,0.0,0.0,23,0.00,CLR,,0.00,WeatherDisplay:10.37,2013-03-20 09:13:00,
2013-03-20 05:18:00,43.0,7.6,29.68,NE,45,0.0,0.0,23,0.00,CLR,,0.00,WeatherDisplay:10.37,2013-03-20 09:18:00,
2013-03-20 05:23:00,43.0,7.6,29.69,NE,45,0.0,0.0,23,0.00,CLR,,0.00,WeatherDisplay:10.37,2013-03-20 09:23:00,
2013-03-20 05:28:00,43.0,7.6,29.69,NE,45,0.0,0.0,23,0.00,CLR,,0.00,WeatherDisplay:10.37,2013-03-20 09:28:00,
2013-03-20 05:33:00,43.0,7.6,29.69,ENE,68,0.0,0.0,23,0.00,CLR,,0.00,WeatherDisplay:10.37,2013-03-20 09:33:00,
2013-03-20 05:38:00,43.0,7.6,29.69,NE,45,0.0,0.0,23,0.00,CLR,,0.00,WeatherDisplay:10.37,2013-03-20 09:38:00,
2013-03-20 05:43:00,43.0,7.6,29.69,North,0,0.0,1.2,23,0.00,CLR,,0.00,WeatherDisplay:10.37,2013-03-20 09:43:00,
2013-03-20 05:48:00,43.0,7.6,29.69,East,90,0.0,0.0,23,0.00,CLR,,0.00,WeatherDisplay:10.37,2013-03-20 09:48:00,
2013-03-20 05:53:00,43.0,7.6,29.69,East,90,0.0,0.0,23,0.00,CLR,,0.00,WeatherDisplay:10.37,2013-03-20 09:53:00,
2013-03-20 05:58:00,43.0,7.6,29.70,North,0,0.0,0.0,23,0.00,CLR,,0.00,WeatherDisplay:10.37,2013-03-20 09:58:00,
2013-03-20 06:03:00,43.0,7.6,29.70,North,0,0.0,0.0,23,0.00,CLR,,0.00,WeatherDisplay:10.37,2013-03-20 10:03:00,
2013-03-20 06:08:00,43.0,7.6,29.70,North,0,0.0,0.0,23,0.00,CLR,,0.00,WeatherDisplay:10.37,2013-03-20 10:08:00,
2013-03-20 06:13:00,43.0,7.6,29.70,North,0,0.0,0.0,23,0.00,CLR,,0.00,WeatherDisplay:10.37,2013-03-20 10:13:00,
2013-03-20 06:18:00,43.0,7.6,29.70,North,0,0.0,0.0,23,0.00,CLR,,0.00,WeatherDisplay:10.37,2013-03-20 10:18:00,
2013-03-20 06:23:00,43.0,7.6,29.71,North,0,0.0,0.0,23,0.00,CLR,,0.00,WeatherDisplay:10.37,2013-03-20 10:23:00,
2013-03-20 06:28:00,43.0,7.6,29.71,North,0,0.0,0.0,23,0.00,CLR,,0.00,WeatherDisplay:10.37,2013-03-20 10:28:00,
2013-03-20 06:33:00,43.0,7.6,29.71,North,0,0.0,0.0,23,0.00,CLR,,0.00,WeatherDisplay:10.37,2013-03-20 10:33:00,
2013-03-20 06:38:00,43.0,7.6,29.72,North,0,0.0,0.0,23,0.00,CLR,,0.00,WeatherDisplay:10.37,2013-03-20 10:38:00,
2013-03-20 06:43:00,43.0,7.6,29.71,North,0,0.0,0.0,23,0.00,CLR,,0.00,WeatherDisplay:10.37,2013-03-20 10:43:00,
2013-03-20 06:48:00,43.0,7.6,29.72,North,0,0.0,0.0,23,0.00,CLR,,0.00,WeatherDisplay:10.37,2013-03-20 10:48:00,
2013-03-20 06:53:00,43.0,7.6,29.72,North,0,0.0,0.0,23,0.00,CLR,,0.00,WeatherDisplay:10.37,2013-03-20 10:53:00,
2013-03-20 06:58:00,43.0,7.6,29.72,North,0,0.0,0.0,23,0.00,CLR,,0.00,WeatherDisplay:10.37,2013-03-20 10:58:00,
2013-03-20 07:03:00,39.9,20.8,29.72,NE,45,0.0,0.0,46,0.00,CLR,,0.00,WeatherDisplay:10.37,2013-03-20 11:03:00,
2013-03-20 07:08:00,39.9,20.8,29.73,NE,45,0.0,0.0,46,0.00,CLR,,0.00,WeatherDisplay:10.37,2013-03-20 11:08:00,
2013-03-20 07:13:00,39.7,21.1,29.73,NE,45,0.0,0.0,47,0.00,CLR,,0.00,WeatherDisplay:10.37,2013-03-20 11:13:00,
2013-03-20 07:18:00,39.7,20.6,29.73,NE,45,0.0,0.0,46,0.00,CLR,,0.00,WeatherDisplay:10.37,2013-03-20 11:18:00,
2013-03-20 07:23:00,39.7,20.1,29.73,NE,45,0.0,0.0,45,0.00,CLR,,0.00,WeatherDisplay:10.37,2013-03-20 11:23:00,
2013-03-20 07:28:00,39.9,19.7,29.73,East,90,0.0,0.0,44,0.00,CLR,,0.00,WeatherDisplay:10.37,2013-03-20 11:28:00,
2013-03-20 07:34:00,39.9,19.7,29.73,SE,135,0.0,0.0,44,0.00,CLR,,0.00,WeatherDisplay:10.37,2013-03-20 11:34:00,
2013-03-20 07:39:00,39.9,21.8,29.73,SW,225,0.0,0.0,48,0.00,CLR,,0.00,WeatherDisplay:10.37,2013-03-20 11:39:00,
2013-03-20 07:44:00,39.7,23.1,29.74,SW,225,0.0,0.0,51,0.00,CLR,,0.00,WeatherDisplay:10.37,2013-03-20 11:44:00,
2013-03-20 07:49:00,39.7,24.4,29.74,SW,225,0.0,0.0,54,0.00,CLR,,0.00,WeatherDisplay:10.37,2013-03-20 11:49:00,
2013-03-20 07:54:00,39.7,24.9,29.74,SW,225,0.0,0.0,55,0.00,CLR,,0.00,WeatherDisplay:10.37,2013-03-20 11:54:00,
2013-03-20 07:59:00,39.9,25.5,29.75,NE,45,0.0,0.0,56,0.00,CLR,,0.00,WeatherDisplay:10.37,2013-03-20 11:59:00,
2013-03-20 08:04:00,40.5,21.3,29.75,NE,45,0.0,0.0,46,0.00,CLR,,0.00,WeatherDisplay:10.37,2013-03-20 12:04:00,
2013-03-20 08:09:00,41.4,20.5,29.75,NE,45,0.0,0.0,43,0.00,CLR,,0.00,WeatherDisplay:10.37,2013-03-20 12:09:00,
2013-03-20 08:14:00,41.9,16.2,29.75,NE,45,1.6,3.5,35,0.00,CLR,,0.00,WeatherDisplay:10.37,2013-03-20 12:14:00,
2013-03-20 08:19:00,42.4,14.6,29.75,NE,45,3.1,4.6,32,0.00,CLR,,0.00,WeatherDisplay:10.37,2013-03-20 12:19:00,
2013-03-20 08:24:00,42.8,13.5,29.75,NE,45,0.7,3.5,30,0.00,CLR,,0.00,WeatherDisplay:10.37,2013-03-20 12:24:00,
2013-03-20 08:29:00,43.2,12.2,29.76,NE,45,0.0,4.6,28,0.00,CLR,,0.00,WeatherDisplay:10.37,2013-03-20 12:29:00,
2013-03-20 08:34:00,43.5,12.5,29.76,ENE,68,1.6,4.6,28,0.00,CLR,,0.00,WeatherDisplay:10.37,2013-03-20 12:34:00,
2013-03-20 08:39:00,44.2,13.9,29.76,NE,45,0.0,0.0,29,0.00,CLR,,0.00,WeatherDisplay:10.37,2013-03-20 12:39:00,
2013-03-20 08:44:00,44.4,14.1,29.76,North,0,0.0,1.2,29,0.00,CLR,,0.00,WeatherDisplay:10.37,2013-03-20 12:44:00,
2013-03-20 08:49:00,44.4,13.3,29.76,NE,45,2.2,3.5,28,0.00,CLR,,0.00,WeatherDisplay:10.37,2013-03-20 12:49:00,
2013-03-20 08:54:00,44.8,12.8,29.76,NE,45,1.6,3.5,27,0.00,CLR,,0.00,WeatherDisplay:10.37,2013-03-20 12:54:00,
2013-03-20 08:59:00,45.5,5.6,29.77,NE,45,0.0,0.0,19,0.00,CLR,,0.00,WeatherDisplay:10.37,2013-03-20 12:59:00,
2013-03-20 09:04:00,46.4,16.6,29.77,SE,135,0.0,0.0,30,0.00,CLR,,0.00,WeatherDisplay:10.37,2013-03-20 13:04:00,
2013-03-20 09:09:00,46.6,15.2,29.77,East,90,2.2,5.8,28,0.00,CLR,,0.00,WeatherDisplay:10.37,2013-03-20 13:09:00,
2013-03-20 09:14:00,47.7,16.1,29.77,NE,45,0.0,0.0,28,0.00,CLR,,0.00,WeatherDisplay:10.37,2013-03-20 13:14:00,
2013-03-20 09:19:00,48.0,16.4,29.77,East,90,1.6,3.5,28,0.00,CLR,,0.00,WeatherDisplay:10.37,2013-03-20 13:19:00,
2013-03-20 09:24:00,48.4,15.0,29.78,NE,45,1.6,3.5,26,0.00,CLR,,0.00,WeatherDisplay:10.37,2013-03-20 13:24:00,
2013-03-20 09:29:00,48.0,14.7,29.77,East,90,1.6,4.6,26,0.00,CLR,,0.00,WeatherDisplay:10.37,2013-03-20 13:29:00,
2013-03-20 09:34:00,48.0,14.7,29.78,East,90,1.6,3.5,26,0.00,CLR,,0.00,WeatherDisplay:10.37,2013-03-20 13:34:00,
2013-03-20 09:39:00,48.0,14.7,29.78,NE,45,1.6,5.8,26,0.00,CLR,,0.00,WeatherDisplay:10.37,2013-03-20 13:39:00,
2013-03-20 09:44:00,47.7,14.4,29.78,NE,45,3.8,5.8,26,0.00,CLR,,0.00,WeatherDisplay:10.37,2013-03-20 13:44:00,
2013-03-20 09:49:00,48.0,14.7,29.78,East,90,3.1,4.6,26,0.00,CLR,,0.00,WeatherDisplay:10.37,2013-03-20 13:49:00,
2013-03-20 09:54:00,48.2,14.0,29.78,NE,45,0.0,6.9,25,0.00,CLR,,0.00,WeatherDisplay:10.37,2013-03-20 13:54:00,
2013-03-20 09:59:00,49.1,14.7,29.78,North,0,3.1,4.6,25,0.00,CLR,,0.00,WeatherDisplay:10.37,2013-03-20 13:59:00,
2013-03-20 10:04:00,49.3,14.0,29.78,NE,45,2.2,5.8,24,0.00,CLR,,0.00,WeatherDisplay:10.37,2013-03-20 14:04:00,
2013-03-20 10:09:00,49.1,13.8,29.78,East,90,0.7,2.3,24,0.00,CLR,,0.00,WeatherDisplay:10.37,2013-03-20 14:09:00,
2013-03-20 10:14:00,50.2,13.7,29.78,East,90,0.0,0.0,23,0.00,CLR,,0.00,WeatherDisplay:10.37,2013-03-20 14:14:00,
2013-03-20 10:19:00,49.8,14.4,29.78,NNE,22,2.2,5.4,24,0.00,CLR,,0.00,WeatherDisplay:10.37,2013-03-20 14:19:00,
2013-03-20 10:24:00,50.2,13.7,29.78,NE,45,3.1,4.6,23,0.00,CLR,,0.00,WeatherDisplay:10.37,2013-03-20 14:24:00,
2013-03-20 10:29:00,50.4,13.9,29.78,NW,315,0.0,3.5,23,0.00,CLR,,0.00,WeatherDisplay:10.37,2013-03-20 14:29:00,
2013-03-20 10:34:00,51.3,14.7,29.78,NE,45,0.0,0.0,23,0.00,CLR,,0.00,WeatherDisplay:10.37,2013-03-20 14:34:00,
2013-03-20 10:39:00,50.5,14.1,29.78,NNE,22,2.2,0.0,23,0.00,CLR,,0.00,WeatherDisplay:10.37,2013-03-20 14:39:00,
2013-03-20 10:44:00,49.8,14.4,29.78,WNW,292,3.1,6.9,24,0.00,CLR,,0.00,WeatherDisplay:10.37,2013-03-20 14:44:00,
2013-03-20 10:49:00,49.6,14.3,29.79,NE,45,0.0,0.0,24,0.00,CLR,,0.00,WeatherDisplay:10.37,2013-03-20 14:49:00,
2013-03-20 10:54:00,49.6,14.3,29.79,SSE,158,4.5,8.1,24,0.00,CLR,,0.00,WeatherDisplay:10.37,2013-03-20 14:54:00,
2013-03-20 10:59:00,49.5,14.1,29.78,NE,45,2.2,6.9,24,0.00,CLR,,0.00,WeatherDisplay:10.37,2013-03-20 14:59:00,
2013-03-20 11:04:00,49.3,14.0,29.78,NE,45,1.6,5.8,24,0.00,CLR,,0.00,WeatherDisplay:10.37,2013-03-20 15:04:00,
2013-03-20 11:09:00,50.0,13.6,29.77,East,90,0.0,0.0,23,0.00,CLR,,0.00,WeatherDisplay:10.37,2013-03-20 15:09:00,
2013-03-20 11:14:00,50.2,13.7,29.77,NE,45,1.6,4.6,23,0.00,CLR,,0.00,WeatherDisplay:10.37,2013-03-20 15:14:00,
2013-03-20 11:19:00,50.7,14.2,29.77,North,0,0.0,0.0,23,0.00,CLR,,0.00,WeatherDisplay:10.37,2013-03-20 15:19:00,
2013-03-20 11:24:00,51.6,15.0,29.77,NNE,22,0.0,0.0,23,0.00,CLR,,0.00,WeatherDisplay:10.37,2013-03-20 15:24:00,
2013-03-20 11:29:00,51.8,14.1,29.77,NE,45,6.0,8.1,22,0.00,CLR,,0.00,WeatherDisplay:10.37,2013-03-20 15:29:00,
2013-03-20 11:34:00,51.4,14.8,29.77,NE,45,3.8,0.0,23,0.00,CLR,,0.00,WeatherDisplay:10.37,2013-03-20 15:34:00,
2013-03-20 11:39:00,51.4,14.8,29.77,NE,45,0.0,3.5,23,0.00,CLR,,0.00,WeatherDisplay:10.37,2013-03-20 15:39:00,
2013-03-20 11:44:00,52.0,14.3,29.77,NW,315,0.0,0.0,22,0.00,CLR,,0.00,WeatherDisplay:10.37,2013-03-20 15:44:00,
2013-03-20 11:49:00,52.5,14.7,29.77,North,0,0.0,0.0,22,0.00,CLR,,0.00,WeatherDisplay:10.37,2013-03-20 15:49:00,
2013-03-20 11:54:00,52.0,14.3,29.76,SE,135,0.0,0.0,22,0.00,CLR,,0.00,WeatherDisplay:10.37,2013-03-20 15:54:00,
2013-03-20 11:59:00,52.3,14.6,29.76,ENE,68,0.0,0.0,22,0.00,CLR,,0.00,WeatherDisplay:10.37,2013-03-20 15:59:00,
2013-03-20 12:04:00,51.8,14.1,29.75,East,90,3.1,5.8,22,0.00,CLR,,0.00,WeatherDisplay:10.37,2013-03-20 16:04:00,
2013-03-20 12:09:00,51.1,14.5,29.76,NE,45,2.2,5.8,23,0.00,CLR,,0.00,WeatherDisplay:10.37,2013-03-20 16:09:00,
2013-03-20 12:14:00,51.8,14.1,29.75,North,0,0.0,0.0,22,0.00,CLR,,0.00,WeatherDisplay:10.37,2013-03-20 16:14:00,
2013-03-20 12:19:00,53.8,14.7,29.75,East,90,1.6,0.0,21,0.00,CLR,,0.00,WeatherDisplay:10.37,2013-03-20 16:19:00,
2013-03-20 12:24:00,53.1,15.2,29.75,East,90,0.0,5.8,22,0.00,CLR,,0.00,WeatherDisplay:10.37,2013-03-20 16:24:00,
2013-03-20 12:29:00,54.5,15.3,29.75,NE,45,0.0,1.2,21,0.00,CLR,,0.00,WeatherDisplay:10.37,2013-03-20 16:29:00,
2013-03-20 12:34:00,55.9,18.6,29.75,West,270,0.0,0.0,23,0.00,CLR,,0.00,WeatherDisplay:10.37,2013-03-20 16:34:00,
2013-03-20 12:39:00,56.5,19.1,29.74,East,90,2.2,5.8,23,0.00,CLR,,0.00,WeatherDisplay:10.37,2013-03-20 16:39:00,
2013-03-20 12:44:00,54.5,15.3,29.74,NNE,22,0.0,5.8,21,0.00,CLR,,0.00,WeatherDisplay:10.37,2013-03-20 16:44:00,
2013-03-20 12:49:00,55.0,15.8,29.74,SW,225,0.0,0.0,21,0.00,CLR,,0.00,WeatherDisplay:10.37,2013-03-20 16:49:00,
2013-03-20 12:54:00,55.0,15.8,29.74,West,270,0.7,5.8,21,0.00,CLR,,0.00,WeatherDisplay:10.37,2013-03-20 16:54:00,
2013-03-20 12:59:00,54.5,15.3,29.74,NE,45,0.7,3.5,21,0.00,CLR,,0.00,WeatherDisplay:10.37,2013-03-20 16:59:00,
2013-03-20 13:04:00,55.4,18.2,29.73,NE,45,0.0,0.0,23,0.00,CLR,,0.00,WeatherDisplay:10.37,2013-03-20 17:04:00,
2013-03-20 13:09:00,56.5,19.1,29.73,NE,45,0.0,0.0,23,0.00,CLR,,0.00,WeatherDisplay:10.37,2013-03-20 17:09:00,
2013-03-20 13:14:00,56.5,19.1,29.72,SW,225,2.2,6.9,23,0.00,CLR,,0.00,WeatherDisplay:10.37,2013-03-20 17:14:00,
2013-03-20 13:19:00,56.1,19.8,29.72,SW,225,0.0,1.2,24,0.00,CLR,,0.00,WeatherDisplay:10.37,2013-03-20 17:19:00,
2013-03-20 13:24:00,56.3,19.9,29.72,South,180,1.6,4.6,24,0.00,CLR,,0.00,WeatherDisplay:10.37,2013-03-20 17:24:00,
2013-03-20 13:29:00,56.1,19.8,29.72,NE,45,0.0,0.0,24,0.00,CLR,,0.00,WeatherDisplay:10.37,2013-03-20 17:29:00,
2013-03-20 13:34:00,57.0,20.5,29.71,SE,135,2.2,3.5,24,0.00,CLR,,0.00,WeatherDisplay:10.37,2013-03-20 17:34:00,
2013-03-20 13:39:00,57.9,20.3,29.70,South,180,0.0,0.0,23,0.00,CLR,,0.00,WeatherDisplay:10.37,2013-03-20 17:39:00,
2013-03-20 13:44:00,59.0,20.2,29.70,South,180,0.0,0.0,22,0.00,CLR,,0.00,WeatherDisplay:10.37,2013-03-20 17:44:00,
2013-03-20 13:49:00,58.3,19.6,29.69,NE,45,2.2,6.9,22,0.00,CLR,,0.00,WeatherDisplay:10.37,2013-03-20 17:49:00,
2013-03-20 13:54:00,57.0,19.5,29.68,NE,45,4.5,6.9,23,0.00,CLR,,0.00,WeatherDisplay:10.37,2013-03-20 17:54:00,
2013-03-20 13:59:00,55.6,18.3,29.68,East,90,1.6,6.9,23,0.00,CLR,,0.00,WeatherDisplay:10.37,2013-03-20 17:59:00,
2013-03-20 14:04:00,57.7,20.1,29.68,SW,225,0.0,2.3,23,0.00,CLR,,0.00,WeatherDisplay:10.37,2013-03-20 18:04:00,
2013-03-20 14:09:00,58.3,20.6,29.67,South,180,1.6,4.6,23,0.00,CLR,,0.00,WeatherDisplay:10.37,2013-03-20 18:09:00,
2013-03-20 14:14:00,58.6,20.9,29.67,NE,45,1.6,3.5,23,0.00,CLR,,0.00,WeatherDisplay:10.37,2013-03-20 18:14:00,
2013-03-20 14:19:00,58.6,20.9,29.66,SE,135,1.6,8.1,23,0.00,CLR,,0.00,WeatherDisplay:10.37,2013-03-20 18:19:00,
2013-03-20 14:24:00,58.6,20.9,29.66,NE,45,5.4,9.2,23,0.00,CLR,,0.00,WeatherDisplay:10.37,2013-03-20 18:24:00,
2013-03-20 14:29:00,56.3,18.9,29.65,SW,225,0.0,5.8,23,0.00,CLR,,0.00,WeatherDisplay:10.37,2013-03-20 18:29:00,
2013-03-20 14:34:00,57.6,18.9,29.65,NE,45,3.1,5.8,22,0.00,CLR,,0.00,WeatherDisplay:10.37,2013-03-20 18:34:00,
2013-03-20 14:39:00,57.2,18.6,29.65,SSW,202,2.2,10.4,22,0.00,CLR,,0.00,WeatherDisplay:10.37,2013-03-20 18:39:00,
2013-03-20 14:44:00,57.7,20.1,29.64,SW,225,2.2,4.6,23,0.00,CLR,,0.00,WeatherDisplay:10.37,2013-03-20 18:44:00,
2013-03-20 14:49:00,58.1,21.4,29.64,NW,315,2.2,3.5,24,0.00,CLR,,0.00,WeatherDisplay:10.37,2013-03-20 18:49:00,
2013-03-20 14:54:00,58.1,21.4,29.64,SW,225,1.6,3.5,24,0.00,CLR,,0.00,WeatherDisplay:10.37,2013-03-20 18:54:00,
2013-03-20 14:59:00,57.9,20.3,29.63,SE,135,3.8,8.1,23,0.00,CLR,,0.00,WeatherDisplay:10.37,2013-03-20 18:59:00,
2013-03-20 15:04:00,56.8,20.4,29.63,East,90,1.6,4.6,24,0.00,CLR,,0.00,WeatherDisplay:10.37,2013-03-20 19:04:00,
2013-03-20 15:09:00,57.0,20.5,29.63,East,90,0.0,3.5,24,0.00,CLR,,0.00,WeatherDisplay:10.37,2013-03-20 19:09:00,
2013-03-20 15:14:00,57.0,21.5,29.62,NW,315,3.1,5.8,25,0.00,CLR,,0.00,WeatherDisplay:10.37,2013-03-20 19:14:00,
2013-03-20 15:19:00,56.8,20.4,29.62,SW,225,6.0,9.8,24,0.00,CLR,,0.00,WeatherDisplay:10.37,2013-03-20 19:19:00,
2013-03-20 15:24:00,56.5,20.1,29.61,South,180,6.9,11.5,24,0.00,CLR,,0.00,WeatherDisplay:10.37,2013-03-20 19:24:00,
2013-03-20 15:29:00,56.5,20.1,29.61,South,180,1.6,8.1,24,0.00,CLR,,0.00,WeatherDisplay:10.37,2013-03-20 19:29:00,
2013-03-20 15:34:00,57.2,20.7,29.61,South,180,1.6,11.5,24,0.00,CLR,,0.00,WeatherDisplay:10.37,2013-03-20 19:34:00,
2013-03-20 15:39:00,57.2,20.7,29.61,NE,45,4.5,5.8,24,0.00,CLR,,0.00,WeatherDisplay:10.37,2013-03-20 19:39:00,
2013-03-20 15:44:00,56.8,20.4,29.60,SW,225,2.2,4.6,24,0.00,CLR,,0.00,WeatherDisplay:10.37,2013-03-20 19:44:00,
2013-03-20 15:49:00,56.7,21.2,29.59,SW,225,5.4,6.9,25,0.00,CLR,,0.00,WeatherDisplay:10.37,2013-03-20 19:49:00,
2013-03-20 15:54:00,56.1,19.8,29.59,ESE,112,0.7,8.1,24,0.00,CLR,,0.00,WeatherDisplay:10.37,2013-03-20 19:54:00,
2013-03-20 15:59:00,56.7,20.2,29.58,East,90,0.7,4.6,24,0.00,CLR,,0.00,WeatherDisplay:10.37,2013-03-20 19:59:00,
2013-03-20 16:04:00,56.7,20.2,29.58,South,180,1.6,6.9,24,0.00,CLR,,0.00,WeatherDisplay:10.37,2013-03-20 20:04:00,
2013-03-20 16:09:00,57.6,21.0,29.58,SE,135,0.7,3.5,24,0.00,CLR,,0.00,WeatherDisplay:10.37,2013-03-20 20:09:00,
2013-03-20 16:14:00,57.6,21.0,29.58,SE,135,0.0,10.4,24,0.00,CLR,,0.00,WeatherDisplay:10.37,2013-03-20 20:14:00,
2013-03-20 16:19:00,57.2,19.7,29.57,SW,225,0.7,5.8,23,0.00,CLR,,0.00,WeatherDisplay:10.37,2013-03-20 20:19:00,
2013-03-20 16:24:00,56.7,19.2,29.57,NNW,338,7.6,10.4,23,0.00,CLR,,0.00,WeatherDisplay:10.37,2013-03-20 20:24:00,
2013-03-20 16:29:00,56.8,20.4,29.57,SSW,202,1.6,4.6,24,0.00,CLR,,0.00,WeatherDisplay:10.37,2013-03-20 20:29:00,
2013-03-20 16:34:00,56.8,20.4,29.57,NW,315,0.7,8.1,24,0.00,CLR,,0.00,WeatherDisplay:10.37,2013-03-20 20:34:00,
2013-03-20 16:39:00,57.0,21.5,29.57,SW,225,0.0,1.2,25,0.00,CLR,,0.00,WeatherDisplay:10.37,2013-03-20 20:39:00,
2013-03-20 16:44:00,57.2,20.7,29.56,SW,225,0.7,5.8,24,0.00,CLR,,0.00,WeatherDisplay:10.37,2013-03-20 20:44:00,
2013-03-20 16:49:00,57.2,20.7,29.55,NW,315,0.7,1.2,24,0.00,CLR,,0.00,WeatherDisplay:10.37,2013-03-20 20:49:00,
2013-03-20 16:54:00,57.0,21.5,29.55,South,180,3.8,4.6,25,0.00,CLR,,0.00,WeatherDisplay:10.37,2013-03-20 20:54:00,
2013-03-20 16:59:00,57.0,20.5,29.55,South,180,0.7,3.5,24,0.00,CLR,,0.00,WeatherDisplay:10.37,2013-03-20 20:59:00,
2013-03-20 17:04:00,56.8,20.4,29.54,East,90,0.0,5.8,24,0.00,CLR,,0.00,WeatherDisplay:10.37,2013-03-20 21:04:00,
2013-03-20 17:09:00,56.8,21.3,29.54,South,180,1.6,3.5,25,0.00,CLR,,0.00,WeatherDisplay:10.37,2013-03-20 21:09:00,
2013-03-20 17:14:00,57.2,20.7,29.54,East,90,0.0,5.8,24,0.00,CLR,,0.00,WeatherDisplay:10.37,2013-03-20 21:14:00,
2013-03-20 17:19:00,57.7,21.1,29.54,East,90,1.6,5.8,24,0.00,CLR,,0.00,WeatherDisplay:10.37,2013-03-20 21:19:00,
2013-03-20 17:24:00,57.6,21.0,29.54,NE,45,3.8,3.8,24,0.00,CLR,,0.00,WeatherDisplay:10.37,2013-03-20 21:24:00,
2013-03-20 17:29:00,57.6,21.0,29.54,ENE,68,0.0,0.0,24,0.00,CLR,,0.00,WeatherDisplay:10.37,2013-03-20 21:29:00,
2013-03-20 17:34:00,57.4,20.8,29.53,SW,225,0.0,9.2,24,0.00,CLR,,0.00,WeatherDisplay:10.37,2013-03-20 21:34:00,
2013-03-20 17:40:00,57.4,20.8,29.53,South,188,1.0,9.0,24,0.00,CLR,,0.00,WeatherDisplay:10.37,2013-03-20 21:40:00,
2013-03-20 17:45:00,57.4,19.8,29.53,East,90,0.7,3.5,23,0.00,CLR,,0.00,WeatherDisplay:10.37,2013-03-20 21:45:00,
2013-03-20 17:50:00,56.5,20.1,29.53,East,90,2.2,4.6,24,0.00,CLR,,0.00,WeatherDisplay:10.37,2013-03-20 21:50:00,
2013-03-20 17:55:00,55.8,19.5,29.54,SW,225,0.0,1.2,24,0.00,CLR,,0.00,WeatherDisplay:10.37,2013-03-20 21:55:00,
2013-03-20 18:00:00,55.9,20.6,29.54,SE,135,1.6,3.5,25,0.00,CLR,,0.00,WeatherDisplay:10.37,2013-03-20 22:00:00,
2013-03-20 18:05:00,56.1,20.7,29.53,East,90,0.7,2.3,25,0.00,CLR,,0.00,WeatherDisplay:10.37,2013-03-20 22:05:00,
2013-03-20 18:10:00,56.1,20.7,29.54,SW,225,0.0,2.3,25,0.00,CLR,,0.00,WeatherDisplay:10.37,2013-03-20 22:10:00,
2013-03-20 18:15:00,55.9,20.6,29.54,East,90,2.2,5.8,25,0.00,CLR,,0.00,WeatherDisplay:10.37,2013-03-20 22:15:00,
2013-03-20 18:20:00,55.4,20.1,29.54,SW,225,0.0,3.5,25,0.00,CLR,,0.00,WeatherDisplay:10.37,2013-03-20 22:20:00,
2013-03-20 18:25:00,55.4,20.1,29.54,West,270,0.0,0.0,25,0.00,CLR,,0.00,WeatherDisplay:10.37,2013-03-20 22:25:00,
2013-03-20 18:30:00,55.8,20.4,29.54,SE,135,0.7,2.3,25,0.00,CLR,,0.00,WeatherDisplay:10.37,2013-03-20 22:30:00,
2013-03-20 18:35:00,55.8,19.5,29.54,SE,135,0.0,3.5,24,0.04,RA,,0.04,WeatherDisplay:10.37,2013-03-20 22:35:00,
2013-03-20 18:40:00,55.6,19.3,29.54,North,0,0.0,3.5,24,0.04,RA,,0.04,WeatherDisplay:10.37,2013-03-20 22:40:00,
2013-03-20 18:45:00,55.4,20.1,29.54,SE,135,0.0,0.0,25,0.04,CLR,,0.04,WeatherDisplay:10.37,2013-03-20 22:45:00,
2013-03-20 18:50:00,55.2,18.0,29.54,East,90,0.0,1.2,23,0.04,CLR,,0.04,WeatherDisplay:10.37,2013-03-20 22:50:00,
2013-03-20 18:55:00,54.7,16.5,29.55,East,90,0.0,1.2,22,0.04,CLR,,0.04,WeatherDisplay:10.37,2013-03-20 22:55:00,
2013-03-20 19:00:00,54.5,16.4,29.55,East,90,0.0,0.0,22,0.04,CLR,,0.04,WeatherDisplay:10.37,2013-03-20 23:00:00,
2013-03-20 19:05:00,53.8,16.8,29.55,South,180,0.0,0.0,23,0.04,CLR,,0.04,WeatherDisplay:10.37,2013-03-20 23:05:00,
2013-03-20 19:10:00,53.1,16.2,29.55,East,90,0.0,0.0,23,0.04,CLR,,0.04,WeatherDisplay:10.37,2013-03-20 23:10:00,
2013-03-20 19:15:00,52.5,15.7,29.54,South,180,0.0,0.0,23,0.04,CLR,,0.04,WeatherDisplay:10.37,2013-03-20 23:15:00,
2013-03-20 19:20:00,52.3,15.6,29.54,SE,135,0.0,0.0,23,0.04,CLR,,0.04,WeatherDisplay:10.37,2013-03-20 23:20:00,
2013-03-20 19:25:00,51.6,16.9,29.54,SE,135,0.0,0.0,25,0.04,CLR,,0.04,WeatherDisplay:10.37,2013-03-20 23:25:00,
2013-03-20 19:30:00,50.9,17.2,29.53,SW,225,0.0,0.0,26,0.04,CLR,,0.04,WeatherDisplay:10.37,2013-03-20 23:30:00,
2013-03-20 19:35:00,49.8,18.8,29.53,South,180,0.0,0.0,29,0.00,CLR,,0.04,WeatherDisplay:10.37,2013-03-20 23:35:00,
2013-03-20 19:40:00,48.7,18.6,29.53,South,180,0.0,0.0,30,0.00,CLR,,0.04,WeatherDisplay:10.37,2013-03-20 23:40:00,
2013-03-20 19:45:00,48.2,21.1,29.53,South,180,0.0,0.0,34,0.00,CLR,,0.04,WeatherDisplay:10.37,2013-03-20 23:45:00,
2013-03-20 19:50:00,47.3,22.9,29.53,South,180,0.0,0.0,38,0.00,CLR,,0.04,WeatherDisplay:10.37,2013-03-20 23:50:00,
2013-03-20 19:55:00,46.4,24.5,29.52,SW,225,0.0,0.0,42,0.00,CLR,,0.04,WeatherDisplay:10.37,2013-03-20 23:55:00,
2013-03-20 20:00:00,45.1,24.5,29.52,SW,225,0.0,0.0,44,0.00,CLR,,0.04,WeatherDisplay:10.37,2013-03-21 00:00:00,
2013-03-20 20:05:00,44.6,23.5,29.52,SW,225,0.0,0.0,43,0.00,CLR,,0.04,WeatherDisplay:10.37,2013-03-21 00:05:00,
2013-03-20 20:10:00,44.1,24.1,29.52,SW,225,0.0,0.0,45,0.00,CLR,,0.04,WeatherDisplay:10.37,2013-03-21 00:10:00,
2013-03-20 20:15:00,43.7,25.8,29.52,SW,225,0.0,0.0,49,0.00,CLR,,0.04,WeatherDisplay:10.37,2013-03-21 00:15:00,
2013-03-20 20:20:00,43.0,27.0,29.52,SW,225,0.0,0.0,53,0.00,CLR,,0.04,WeatherDisplay:10.37,2013-03-21 00:20:00,
2013-03-20 20:25:00,42.4,27.4,29.52,SW,225,0.0,0.0,55,0.00,CLR,,0.04,WeatherDisplay:10.37,2013-03-21 00:25:00,
2013-03-20 20:30:00,42.1,27.1,29.52,North,0,0.0,0.0,55,0.00,CLR,,0.04,WeatherDisplay:10.37,2013-03-21 00:30:00,
2013-03-20 20:35:00,41.9,27.3,29.51,NE,45,0.0,0.0,56,0.00,CLR,,0.04,WeatherDisplay:10.37,2013-03-21 00:35:00,
2013-03-20 20:40:00,41.9,26.9,29.51,West,270,0.0,0.0,55,0.00,CLR,,0.04,WeatherDisplay:10.37,2013-03-21 00:40:00,
2013-03-20 20:45:00,41.7,27.2,29.51,NE,45,0.0,0.0,56,0.00,CLR,,0.04,WeatherDisplay:10.37,2013-03-21 00:45:00,
2013-03-20 20:50:00,41.5,27.0,29.51,NE,45,0.0,0.0,56,0.00,CLR,,0.04,WeatherDisplay:10.37,2013-03-21 00:50:00,
2013-03-20 20:55:00,41.2,27.1,29.51,SW,225,0.0,0.0,57,0.00,CLR,,0.04,WeatherDisplay:10.37,2013-03-21 00:55:00,
2013-03-20 21:00:00,40.6,27.4,29.51,SW,225,0.0,0.0,59,0.00,CLR,,0.04,WeatherDisplay:10.37,2013-03-21 01:00:00,
2013-03-20 21:05:00,40.1,27.3,29.51,SW,225,0.0,0.0,60,0.00,CLR,,0.04,WeatherDisplay:10.37,2013-03-21 01:05:00,
2013-03-20 21:10:00,39.7,27.8,29.51,SW,225,0.0,0.0,62,0.00,CLR,,0.04,WeatherDisplay:10.37,2013-03-21 01:10:00,
2013-03-20 21:15:00,39.4,27.8,29.51,SW,225,0.0,0.0,63,0.00,CLR,,0.04,WeatherDisplay:10.37,2013-03-21 01:15:00,
2013-03-20 21:20:00,39.0,27.5,29.51,SW,225,0.0,0.0,63,0.00,CLR,,0.04,WeatherDisplay:10.37,2013-03-21 01:20:00,
2013-03-20 21:25:00,39.2,27.7,29.51,NE,45,0.0,0.0,63,0.00,CLR,,0.04,WeatherDisplay:10.37,2013-03-21 01:25:00,
2013-03-20 21:30:00,39.0,27.9,29.51,NE,45,0.0,0.0,64,0.00,CLR,,0.04,WeatherDisplay:10.37,2013-03-21 01:30:00,
2013-03-20 21:35:00,39.4,28.2,29.51,NE,45,0.0,0.0,64,0.00,CLR,,0.04,WeatherDisplay:10.37,2013-03-21 01:35:00,
2013-03-20 21:40:00,39.6,28.0,29.51,NE,45,0.0,0.0,63,0.00,CLR,,0.04,WeatherDisplay:10.37,2013-03-21 01:40:00,
2013-03-20 21:45:00,39.0,27.1,29.51,NE,45,0.0,0.0,62,0.00,CLR,,0.04,WeatherDisplay:10.37,2013-03-21 01:45:00,
2013-03-20 21:50:00,38.8,27.3,29.51,SW,225,0.0,0.0,63,0.00,CLR,,0.04,WeatherDisplay:10.37,2013-03-21 01:50:00,
2013-03-20 21:55:00,38.7,27.9,29.51,SW,225,0.0,0.0,65,0.00,CLR,,0.04,WeatherDisplay:10.37,2013-03-21 01:55:00,
2013-03-20 22:00:00,38.3,28.3,29.51,SW,225,0.0,0.0,67,0.00,CLR,,0.04,WeatherDisplay:10.37,2013-03-21 02:00:00,
2013-03-20 22:05:00,37.8,27.4,29.51,SW,225,0.0,0.0,66,0.00,CLR,,0.04,WeatherDisplay:10.37,2013-03-21 02:05:00,
2013-03-20 22:10:00,37.4,26.7,29.50,SW,225,0.0,0.0,65,0.00,CLR,,0.04,WeatherDisplay:10.37,2013-03-21 02:10:00,
2013-03-20 22:15:00,37.0,24.8,29.50,NE,45,0.0,0.0,61,0.00,CLR,,0.04,WeatherDisplay:10.37,2013-03-21 02:15:00,
2013-03-20 22:20:00,37.0,24.8,29.50,NE,45,0.0,0.0,61,0.00,CLR,,0.04,WeatherDisplay:10.37,2013-03-21 02:20:00,
2013-03-20 22:25:00,36.9,25.4,29.50,SW,225,0.0,0.0,63,0.00,CLR,,0.04,WeatherDisplay:10.37,2013-03-21 02:25:00,
2013-03-20 22:30:00,36.7,25.6,29.50,SW,225,0.0,0.0,64,0.00,CLR,,0.04,WeatherDisplay:10.37,2013-03-21 02:30:00,
2013-03-20 22:35:00,36.5,25.8,29.50,SW,225,0.0,0.0,65,0.00,CLR,,0.04,WeatherDisplay:10.37,2013-03-21 02:35:00,
2013-03-20 22:40:00,36.1,25.9,29.50,SW,225,0.0,0.0,66,0.00,CLR,,0.04,WeatherDisplay:10.37,2013-03-21 02:40:00,
2013-03-20 22:45:00,36.0,25.7,29.50,West,270,0.0,0.0,66,0.00,CLR,,0.04,WeatherDisplay:10.37,2013-03-21 02:45:00,
2013-03-20 22:50:00,36.0,25.7,29.50,West,270,0.0,0.0,66,0.00,CLR,,0.04,WeatherDisplay:10.37,2013-03-21 02:50:00,
2013-03-20 22:55:00,35.4,26.6,29.50,NE,45,0.0,0.0,70,0.00,CLR,,0.04,WeatherDisplay:10.37,2013-03-21 02:55:00,
2013-03-20 23:00:00,35.6,26.8,29.49,NE,45,0.0,0.0,70,0.00,CLR,,0.04,WeatherDisplay:10.37,2013-03-21 03:00:00,
2013-03-20 23:05:00,35.6,26.4,29.49,NE,45,0.0,0.0,69,0.00,CLR,,0.04,WeatherDisplay:10.37,2013-03-21 03:05:00,
2013-03-20 23:10:00,35.6,26.1,29.49,NE,45,0.0,0.0,68,0.00,CLR,,0.04,WeatherDisplay:10.37,2013-03-21 03:10:00,
2013-03-20 23:15:00,36.0,26.4,29.49,NE,45,0.0,0.0,68,0.00,CLR,,0.04,WeatherDisplay:10.37,2013-03-21 03:15:00,
2013-03-20 23:20:00,36.0,26.1,29.48,NE,45,0.0,0.0,67,0.00,CLR,,0.04,WeatherDisplay:10.37,2013-03-21 03:20:00,
2013-03-20 23:25:00,36.1,26.6,29.48,South,180,0.0,0.0,68,0.00,CLR,,0.04,WeatherDisplay:10.37,2013-03-21 03:25:00,
2013-03-20 23:30:00,36.0,26.1,29.48,South,180,0.0,0.0,67,0.00,CLR,,0.04,WeatherDisplay:10.37,2013-03-21 03:30:00,
2013-03-20 23:35:00,35.8,26.2,29.48,South,180,0.0,0.0,68,0.00,CLR,,0.04,WeatherDisplay:10.37,2013-03-21 03:35:00,
2013-03-20 23:40:00,35.4,26.3,29.48,South,180,0.0,0.0,69,0.00,CLR,,0.04,WeatherDisplay:10.37,2013-03-21 03:40:00,
2013-03-20 23:45:00,35.2,26.1,29.47,South,180,0.0,0.0,69,0.00,CLR,,0.04,WeatherDisplay:10.37,2013-03-21 03:45:00,
2013-03-20 23:50:00,35.2,26.1,29.47,East,90,0.0,0.0,69,0.00,CLR,,0.04,WeatherDisplay:10.37,2013-03-21 03:50:00,
2013-03-20 23:55:00,34.9,25.7,29.46,East,90,0.0,0.0,69,0.00,CLR,,0.04,WeatherDisplay:10.37,2013-03-21 03:55:00,